Map

Track Data

SID SEASON NUMBER BASIN SUBBASIN NAME ISO_TIME NATURE LAT LON WMO_WIND WMO_PRES WMO_AGENCY TRACK_TYPE DIST2LAND LANDFALL IFLAG USA_AGENCY USA_ATCF_ID USA_LAT USA_LON USA_RECORD USA_STATUS USA_WIND USA_PRES USA_SSHS USA_R34_NE USA_R34_SE USA_R34_SW USA_R34_NW USA_R50_NE USA_R50_SE USA_R50_SW USA_R50_NW USA_R64_NE USA_R64_SE USA_R64_SW USA_R64_NW USA_POCI USA_ROCI USA_RMW USA_EYE TOKYO_LAT TOKYO_LON TOKYO_GRADE TOKYO_WIND TOKYO_PRES TOKYO_R50_DIR TOKYO_R50_LONG TOKYO_R50_SHORT TOKYO_R30_DIR TOKYO_R30_LONG TOKYO_R30_SHORT TOKYO_LAND CMA_LAT CMA_LON CMA_CAT CMA_WIND CMA_PRES HKO_LAT HKO_LON HKO_CAT HKO_WIND HKO_PRES NEWDELHI_LAT NEWDELHI_LON NEWDELHI_GRADE NEWDELHI_WIND NEWDELHI_PRES NEWDELHI_CI NEWDELHI_DP NEWDELHI_POCI REUNION_LAT REUNION_LON REUNION_TYPE REUNION_WIND REUNION_PRES REUNION_TNUM REUNION_CI REUNION_RMW REUNION_R34_NE REUNION_R34_SE REUNION_R34_SW REUNION_R34_NW REUNION_R50_NE REUNION_R50_SE REUNION_R50_SW REUNION_R50_NW REUNION_R64_NE REUNION_R64_SE REUNION_R64_SW REUNION_R64_NW BOM_LAT BOM_LON BOM_TYPE BOM_WIND BOM_PRES BOM_TNUM BOM_CI BOM_RMW BOM_R34_NE BOM_R34_SE BOM_R34_SW BOM_R34_NW BOM_R50_NE BOM_R50_SE BOM_R50_SW BOM_R50_NW BOM_R64_NE BOM_R64_SE BOM_R64_SW BOM_R64_NW BOM_ROCI BOM_POCI BOM_EYE BOM_POS_METHOD BOM_PRES_METHOD NADI_LAT NADI_LON NADI_CAT NADI_WIND NADI_PRES WELLINGTON_LAT WELLINGTON_LON WELLINGTON_WIND WELLINGTON_PRES DS824_LAT DS824_LON DS824_STAGE DS824_WIND DS824_PRES TD9636_LAT TD9636_LON TD9636_STAGE TD9636_WIND TD9636_PRES TD9635_LAT TD9635_LON TD9635_WIND TD9635_PRES TD9635_ROCI NEUMANN_LAT NEUMANN_LON NEUMANN_CLASS NEUMANN_WIND NEUMANN_PRES MLC_LAT MLC_LON MLC_CLASS MLC_WIND MLC_PRES USA_GUST BOM_GUST BOM_GUST_PER REUNION_GUST REUNION_GUST_PER USA_SEAHGT USA_SEARAD_NE USA_SEARAD_SE USA_SEARAD_SW USA_SEARAD_NW STORM_SPEED STORM_DIR
1960207N22154 1960 39 WP MM ROSE 1960-07-24 12:00:00 TS 22.0000 154.000 1006 tokyo main 1978 1915 _OO___________ -1 22.0000 154.000 2 1006 0 0 0 22.0000 154.000 1 23 1006 14 283
1960207N22154 1960 39 WP MM ROSE 1960-07-24 15:00:00 TS 22.1674 153.247 main 1909 1869 _PP___________ -1 22.1691 153.138 2 1005 0 0 22.1658 153.356 1 23 1005 13 283
1960207N22154 1960 39 WP MM ROSE 1960-07-24 18:00:00 TS 22.3000 152.650 1004 tokyo main 1869 1835 _OO___________ -1 22.3000 152.500 2 1004 0 0 0 22.3000 152.800 1 23 1004 9 284
1960207N22154 1960 39 WP MM ROSE 1960-07-24 21:00:00 TS 22.3881 152.298 main 1835 1799 _PP___________ -1 22.3841 152.212 2 1004 0 0 22.3920 152.385 1 23 1004 7 294
1960207N22154 1960 39 WP MM ROSE 1960-07-25 00:00:00 TS 22.5667 152.000 1004 tokyo main 1799 1751 OOO______OOO__ jtwc_wp WP071960 22.7000 152.000 30 -1 22.5000 152.000 2 1004 0 0 0 22.5000 152.000 1 23 1004 22.7000 152.000 TC 30 22.7000 152.000 1 30 22.7000 152.000 30 1002 240 8 298
1960207N22154 1960 39 WP MM ROSE 1960-07-25 03:00:00 TS 22.7642 151.517 main 1751 1704 PPP______PPP__ WP071960 22.8379 151.498 30 -1 22.7351 151.538 2 1004 0 0 22.6775 151.515 1 23 1004 22.8379 151.498 TC 30 22.7752 151.539 1 31 22.8379 151.498 30 1001 210 10 293
1960207N22154 1960 39 WP MM ROSE 1960-07-25 06:00:00 TS 22.9635 151.009 1004 tokyo main 1704 1666 OOO______OPO__ jtwc_wp WP071960 23.0000 151.000 30 -1 23.0000 151.000 2 1004 0 0 0 22.9000 151.000 1 23 1004 23.0000 151.000 TC 30 22.8898 151.063 1 32 23.0000 151.000 30 1001 180 10 293
1960207N22154 1960 39 WP MM ROSE 1960-07-25 09:00:00 TS 23.1585 150.515 main 1656 1610 PPP______PPP__ WP071960 23.1998 150.507 32 -1 23.1623 150.507 2 1002 0 0 23.1048 150.507 1 26 1002 23.1998 150.507 TC 32 23.0846 150.556 1 33 23.1998 150.507 32 1000 180 10 295
1960207N22154 1960 39 WP MM ROSE 1960-07-25 12:00:00 TS 23.4000 150.000 1000 tokyo main 1610 1563 OOO______OOO__ jtwc_wp WP071960 23.4000 150.000 35 0 23.4000 150.000 9 1000 0 0 0 23.4000 150.000 1 29 1000 23.4000 150.000 TC 35 23.4000 150.000 2 35 23.4000 150.000 35 1000 180 11 296
1960207N22154 1960 39 WP MM ROSE 1960-07-25 15:00:00 TS 23.6266 149.451 main 1563 1493 PPP______PPP__ WP071960 23.4072 149.477 37 0 23.8326 149.443 9 1000 0 0 23.8401 149.443 1 29 1000 23.4072 149.477 TC 37 23.8656 149.387 2 36 23.4072 149.477 37 999 180 12 303
1960207N22154 1960 39 WP MM ROSE 1960-07-25 18:00:00 TS 24.0615 148.874 1000 tokyo main 1484 1376 OOO______OPO__ jtwc_wp WP071960 23.7000 148.900 40 0 24.4000 148.900 9 1000 0 0 0 24.4000 148.900 1 29 1000 23.7000 148.900 TC 40 24.4689 148.743 2 37 23.7000 148.900 40 999 180 17 320
1960207N22154 1960 39 WP MM ROSE 1960-07-25 21:00:00 TS 24.9178 148.278 main 1376 1259 PPP______PPP__ WP071960 24.7600 148.232 40 0 25.0197 148.434 9 1000 0 0 25.0197 148.434 1 29 1000 24.7600 148.232 TC 40 25.1876 148.102 2 38 24.7600 148.232 40 998 210 21 329
1960207N22154 1960 39 WP MM ROSE 1960-07-26 00:00:00 TS 25.9000 147.667 1000 tokyo main 1249 1146 OOO______OOO__ jtwc_wp WP071960 26.0000 147.500 40 0 25.7000 148.000 9 1000 0 0 0 25.7000 148.000 1 29 1000 26.0000 147.500 TC 40 26.0000 147.500 2 40 26.0000 147.500 40 998 240 21 326
1960207N22154 1960 39 WP MM ROSE 1960-07-26 03:00:00 TS 26.6511 146.995 main 1136 1044 PPP______PPP__ WP071960 26.7506 146.674 37 0 26.3552 147.505 9 1000 0 0 26.3551 147.520 1 33 1000 26.7506 146.674 TC 37 26.9446 146.921 2 38 26.7506 146.674 37 999 240 19 324
1960207N22154 1960 39 WP MM ROSE 1960-07-26 06:00:00 TS 27.4433 146.432 1000 tokyo main 1039 934 OOO______OPO__ jtwc_wp WP071960 27.5000 146.000 35 0 27.1000 147.100 9 1000 0 0 0 27.1000 147.100 2 38 1000 27.5000 146.000 TC 35 27.9598 146.391 2 37 27.5000 146.000 35 1000 240 20 338
1960207N22154 1960 39 WP MM ROSE 1960-07-26 09:00:00 TS 28.4886 146.162 main 925 824 PPP______PPP__ WP071960 28.6564 145.767 35 0 28.0047 146.919 9 1000 0 0 28.0123 146.812 2 38 1000 28.6564 145.767 TC 35 28.9451 145.940 2 36 28.6564 145.767 35 1001 240 21 349
1960207N22154 1960 39 WP MM ROSE 1960-07-26 12:00:00 TS 29.5333 145.967 1000 tokyo main 824 730 OOO______OOO__ jtwc_wp WP071960 29.8000 145.600 35 0 29.0000 146.800 9 1000 0 0 0 29.0000 146.600 2 38 1000 29.8000 145.600 TC 35 29.8000 145.600 2 35 29.8000 145.600 35 1003 240 20 344
1960207N22154 1960 39 WP MM ROSE 1960-07-26 15:00:00 TS 30.3816 145.531 main 715 646 PPP______PPP__ WP071960 30.6434 144.963 35 0 30.0450 146.565 9 1000 0 0 29.9874 146.392 2 38 1000 30.6434 144.963 TC 35 30.3272 145.343 2 35 30.6434 144.963 35 1003 210 16 336
1960207N22154 1960 39 WP MM ROSE 1960-07-26 18:00:00 TS 31.0380 145.201 1000 tokyo main 646 613 OOO______OPO__ jtwc_wp WP071960 31.2000 144.500 35 0 31.0000 146.300 9 1000 0 0 0 30.9000 146.200 2 38 1000 31.2000 144.500 TC 35 30.7280 145.209 2 35 31.2000 144.500 35 1004 180 11 349
1960207N22154 1960 39 WP MM ROSE 1960-07-26 21:00:00 TS 31.4815 145.288 main 613 598 PPP______PPP__ WP071960 31.4605 144.846 35 0 31.7250 146.020 9 1000 0 0 31.6675 145.978 2 38 1000 31.4605 144.846 TC 35 31.1149 145.196 2 35 31.4605 144.846 35 1004 180 8 16
1960207N22154 1960 39 WP MM ROSE 1960-07-27 00:00:00 TS 31.8333 145.467 1000 tokyo main 605 568 OOO______OOO__ jtwc_wp WP071960 31.6000 145.300 35 0 32.3000 145.800 9 1000 0 0 0 32.3000 145.800 2 38 1000 31.6000 145.300 TC 35 31.6000 145.300 2 35 31.6000 145.300 35 1005 180 7 3
1960207N22154 1960 39 WP MM ROSE 1960-07-27 03:00:00 TS 32.2122 145.344 main 562 524 PPP______PPP__ WP071960 31.7195 145.038 35 0 32.8449 145.705 9 1000 0 0 32.8524 145.712 2 33 1000 31.7195 145.038 TC 35 32.4171 145.532 2 33 31.7195 145.038 35 1005 180 9 353
1960207N22154 1960 39 WP MM ROSE 1960-07-27 06:00:00 TS 32.7552 145.329 1000 tokyo main 516 494 OOO______OPO__ jtwc_wp WP071960 32.2000 144.900 35 0 33.3000 145.700 9 1000 0 0 0 33.3000 145.700 1 29 1000 32.2000 144.900 TC 35 33.3315 145.872 2 32 32.2000 144.900 35 1005 180 15 13
1960207N22154 1960 39 WP MM ROSE 1960-07-27 09:00:00 TS 33.6890 145.765 main 499 493 PPP______PPP__ WP071960 33.5123 145.628 32 -1 33.6875 145.727 9 1000 0 0 33.6800 145.727 1 29 1000 33.5123 145.628 TC 32 34.2300 146.253 2 31 33.5123 145.628 32 1005 180 21 24
1960207N22154 1960 39 WP MM ROSE 1960-07-27 12:00:00 TS 34.6667 146.333 1000 tokyo main 502 502 OOO______OOO__ jtwc_wp WP071960 35.0000 146.600 30 -1 34.0000 145.800 9 1000 0 0 0 34.0000 145.800 1 29 1000 35.0000 146.600 TC 30 35.0000 146.600 1 30 35.0000 146.600 30 1005 180 19 25
1960207N22154 1960 39 WP MM ROSE 1960-07-27 15:00:00 TS 35.4149 146.757 main 533 531 PPP______PPP__ WP071960 36.1395 147.316 30 -1 34.2274 145.871 9 1000 0 0 34.2849 145.870 1 29 1000 36.1395 147.316 TC 30 35.5589 146.852 1 30 36.1395 147.316 30 1005 180 12 23
1960207N22154 1960 39 WP MM ROSE 1960-07-27 18:00:00 TS 35.7708 146.918 1000 tokyo main 540 531 OOO______OPO__ jtwc_wp WP071960 36.8000 147.700 30 -1 34.5000 146.000 9 1000 0 0 0 34.6000 146.000 1 29 1000 36.8000 147.700 TC 30 35.9385 147.017 1 30 36.8000 147.700 30 1006 180 4 8
1960207N22154 1960 39 WP MM ROSE 1960-07-27 21:00:00 TS 35.8223 146.822 main 531 522 PPP______PPP__ WP071960 36.7956 147.594 30 -1 34.9695 146.168 9 1000 0 0 35.0270 146.168 1 29 1000 36.7956 147.594 TC 30 36.1990 147.123 1 30 36.7956 147.594 30 1006 210 2 281
1960207N22154 1960 39 WP MM ROSE 1960-07-28 00:00:00 TS 35.8000 146.733 1000 tokyo main 522 522 OOO______OOO__ jtwc_wp WP071960 36.4000 147.200 30 -1 35.5000 146.500 9 1000 0 0 0 35.5000 146.500 1 29 1000 36.4000 147.200 TC 30 36.4000 147.200 1 30 36.4000 147.200 30 1007 240 2 50
1960207N22154 1960 39 WP MM ROSE 1960-07-28 03:00:00 TS 35.9603 147.023 main 546 546 _PP___________ WP071960 -1 35.9640 147.023 9 1000 0 0 35.9565 147.023 1 29 1000 TC 1 11 55
1960207N22154 1960 39 WP MM ROSE 1960-07-28 06:00:00 TS 36.4000 147.800 1000 tokyo main 594 594 _OO___________ -1 36.4000 147.800 9 1000 0 0 0 36.4000 147.800 1 29 1000 1 17 60
1960207N22154 1960 39 WP MM ROSE 1960-07-28 09:00:00 TS 36.8122 148.844 main 656 656 _PP___________ -1 36.8085 148.848 9 1000 0 0 36.8158 148.840 1 29 1000 1 19 66
1960207N22154 1960 39 WP MM ROSE 1960-07-28 12:00:00 TS 37.2000 150.000 1000 tokyo main 732 732 _OO___________ -1 37.2000 150.000 9 1000 0 0 0 37.2000 150.000 1 29 1000 19 67
1960207N22154 1960 39 WP MM ROSE 1960-07-28 15:00:00 TS 37.5703 151.045 main 776 776 _PP___________ -1 37.5988 151.016 9 1000 0 0 37.5417 151.074 1 29 1000 18 65
1960207N22154 1960 39 WP MM ROSE 1960-07-28 18:00:00 TS 37.9500 152.050 1000 tokyo main 801 801 _OO___________ -1 38.0000 152.000 9 1000 0 0 0 37.9000 152.100 1 29 1000 18 65
1960207N22154 1960 39 WP MM ROSE 1960-07-28 21:00:00 TS 38.3416 153.097 main 838 834 _PP___________ -1 38.3707 153.076 9 1000 0 0 38.3124 153.118 1 29 1000 17 61
1960207N22154 1960 39 WP MM ROSE 1960-07-29 00:00:00 TS 38.8000 154.000 1000 tokyo main 834 802 _OO___________ -1 38.8000 154.000 9 1000 0 0 0 38.8000 154.000 1 29 1000 16 49
1960207N22154 1960 39 WP MM ROSE 1960-07-29 03:00:00 TS 39.3574 154.616 main 796 761 _PP___________ -1 39.3533 154.562 9 1000 0 0 39.3614 154.669 1 33 1000 15 35
1960207N22154 1960 39 WP MM ROSE 1960-07-29 06:00:00 ET 40.0000 155.100 1000 tokyo main 761 732 _OO___________ -1 40.0000 155.000 6 1000 0 0 0 40.0000 155.200 9 38 1000 15 31
1960207N22154 1960 39 WP MM ROSE 1960-07-29 09:00:00 ET 40.6698 155.655 main 728 695 _PP___________ -1 40.6703 155.615 6 998 0 0 40.6693 155.695 9 38 998 16 31
1960207N22154 1960 39 WP MM ROSE 1960-07-29 12:00:00 ET 41.4000 156.200 996 tokyo main 695 661 _OO___________ -1 41.4000 156.200 6 996 0 0 0 41.4000 156.200 9 38 996 17 26
1960207N22154 1960 39 WP MM ROSE 1960-07-29 15:00:00 ET 42.2290 156.685 main 661 637 _PP___________ -1 42.2281 156.543 6 994 0 0 42.2300 156.826 9 38 994 18 26
1960207N22154 1960 39 WP MM ROSE 1960-07-29 18:00:00 ET 43.0000 157.250 992 tokyo main 644 637 _OO___________ -1 43.0000 157.000 6 992 0 0 0 43.0000 157.500 9 38 992 17 38
1960207N22154 1960 39 WP MM ROSE 1960-07-29 21:00:00 ET 43.5467 158.112 main 670 670 _PP___________ -1 43.5482 158.020 6 991 0 0 43.5453 158.204 9 43 991 16 50
1960207N22154 1960 39 WP MM ROSE 1960-07-30 00:00:00 ET 44.0000 158.900 990 tokyo main 704 684 _OO___________ -1 44.0000 159.000 6 990 0 0 0 44.0000 158.800 9 48 990 12 43
1960207N22154 1960 39 WP MM ROSE 1960-07-30 03:00:00 ET 44.4239 159.261 main 687 630 _PP___________ -1 44.4234 159.367 6 990 0 0 44.4244 159.155 9 48 990 11 22
1960207N22154 1960 39 WP MM ROSE 1960-07-30 06:00:00 ET 45.0000 159.450 990 tokyo main 634 546 _OO___________ -1 45.0000 159.500 6 990 0 0 0 45.0000 159.400 9 48 990 15 8
1960207N22154 1960 39 WP MM ROSE 1960-07-30 09:00:00 ET 45.9218 159.552 main 550 469 _PP___________ -1 45.9218 159.573 6 990 0 0 45.9218 159.530 9 48 990 20 11
1960207N22154 1960 39 WP MM ROSE 1960-07-30 12:00:00 ET 47.0000 160.000 990 tokyo main 464 444 _OO___________ -1 47.0000 160.000 6 990 0 0 0 47.0000 160.000 9 48 990 23 28
1960207N22154 1960 39 WP MM ROSE 1960-07-30 15:00:00 ET 47.9964 161.172 main 454 448 _PP___________ -1 47.9964 161.168 6 993 0 0 47.9963 161.176 9 43 993 28 45
1960207N22154 1960 39 WP MM ROSE 1960-07-30 18:00:00 ET 49.0000 163.000 996 tokyo main 461 459 _OO___________ -1 49.0000 163.000 6 996 0 0 0 49.0000 163.000 9 38 996 33 52
1960207N22154 1960 39 WP MM ROSE 1960-07-30 21:00:00 ET 50.0673 165.198 main 483 483 _PP___________ -1 50.0673 165.198 6 996 0 0 50.0673 165.198 9 38 996 38 58
1960207N22154 1960 39 WP MM ROSE 1960-07-31 00:00:00 ET 51.0000 168.000 996 tokyo main 568 568 _OO___________ -1 51.0000 168.000 6 996 0 0 0 51.0000 168.000 9 38 996 42 69
1960207N22154 1960 39 WP MM ROSE 1960-07-31 03:00:00 ET 51.5884 171.511 main 711 711 _PP___________ -1 51.5884 171.511 6 996 0 0 51.5884 171.511 9 33 996 44 77
1960207N22154 1960 39 WP MM ROSE 1960-07-31 06:00:00 ET 52.0000 175.000 996 tokyo main 882 882 _OO___________ -1 52.0000 175.000 6 996 0 0 0 52.0000 175.000 9 29 996 38 77
1960207N22154 1960 39 WP MM ROSE 1960-07-31 09:00:00 ET 52.4225 177.600 main 906 745 _PP___________ -1 52.3991 177.532 6 997 0 0 52.4694 177.736 9 29 997 32 72
1960207N22154 1960 39 EP CP ROSE 1960-07-31 12:00:00 ET 53.0000 180.000 998 tokyo main 739 545 _OO___________ -1 53.0000 180.000 6 998 0 0 0 53.0000 180.000 9 29 998 37 66
1960207N22154 1960 39 EP CP ROSE 1960-07-31 15:00:00 ET 53.9367 183.190 main 532 347 _P____________ -1 53.9367 -176.810 6 996 0 0 9 46 64
1960207N22154 1960 39 EP CP ROSE 1960-07-31 18:00:00 ET 55.0000 187.000 main 342 _O____________ -1 55.0000 187.000 6 994 0 0 0 49 64

Digital Typhoon Data and Search

About IBTrACS Database

This database is a web-friendly format of International Best Track Archive for Climate Stewardship (IBTrACS), a global best track data archive curated by NOAA dating back to 1842.

Updated: 2021-12-06